Time;durP1;ratioP1;P1;durP2;ratioP2;P2;SDS_P1;SDS_P2;PMS_P1;PMS_P2;Temp;Humidity;BMP_temperature;BMP_pressure;BME280_temperature;BME280_humidity;BME280_pressure;Samples;Min_cycle;Max_cycle;Signal;HPM_P1;HPM_P2
2022/01/08 00:01:33;;;;;;;3.70;2.10;;;;;;;7.66;90.75;99307.66;4994440;28;20633;-88
2022/01/08 00:03:59;;;;;;;5.30;2.17;;;;;;;7.59;91.19;99310.56;4995127;28;20180;-89
2022/01/08 00:06:24;;;;;;;4.83;2.67;;;;;;;7.65;91.29;99305.94;4995064;28;20196;-89
2022/01/08 00:08:50;;;;;;;5.47;2.40;;;;;;;7.79;89.80;99297.59;4996154;28;20180;-89
2022/01/08 00:11:20;;;;;;;5.67;2.00;;;;;;;7.64;90.92;99301.66;4994962;28;20237;-89
2022/01/08 00:13:46;;;;;;;6.03;2.30;;;;;;;7.58;91.02;99299.28;4996077;28;20262;-89
2022/01/08 00:16:11;;;;;;;6.53;3.17;;;;;;;7.77;91.03;99300.28;4994854;28;20172;-88
2022/01/08 00:18:37;;;;;;;4.00;2.23;;;;;;;7.91;89.64;99297.13;4994720;28;20220;-88
2022/01/08 00:21:02;;;;;;;3.87;2.67;;;;;;;8.00;89.01;99297.63;4995593;28;20278;-88
2022/01/08 00:23:28;;;;;;;4.43;2.13;;;;;;;8.05;88.77;99285.22;4995562;28;20203;-88
2022/01/08 00:25:54;;;;;;;5.83;2.50;;;;;;;7.93;89.18;99285.72;4996138;28;20281;-89
2022/01/08 00:28:19;;;;;;;6.77;2.90;;;;;;;8.02;88.65;99294.94;4995544;28;20646;-88
2022/01/08 00:30:45;;;;;;;5.83;2.33;;;;;;;8.20;87.74;99288.97;4995524;28;20278;-88
2022/01/08 00:33:11;;;;;;;8.33;3.13;;;;;;;8.23;87.57;99285.41;4995460;28;20180;-87
2022/01/08 00:35:36;;;;;;;5.97;1.83;;;;;;;8.26;87.34;99283.50;4995757;28;20659;-88
2022/01/08 00:38:05;;;;;;;5.60;2.47;;;;;;;8.10;87.33;99284.22;4994459;28;20378;-88
2022/01/08 00:40:31;;;;;;;4.50;1.97;;;;;;;7.91;88.29;99274.47;4995614;28;20180;-88
2022/01/08 00:42:56;;;;;;;5.93;3.20;;;;;;;7.88;89.13;99277.22;4995486;28;20206;-88
2022/01/08 00:45:22;;;;;;;3.87;1.80;;;;;;;7.95;88.71;99273.47;4995544;28;20176;-88
2022/01/08 00:47:47;;;;;;;5.80;2.93;;;;;;;8.02;88.30;99269.69;4995513;28;20176;-88
2022/01/08 00:50:13;;;;;;;6.07;2.30;;;;;;;7.97;88.37;99266.41;4995395;28;20213;-88
2022/01/08 00:52:40;;;;;;;5.43;2.80;;;;;;;7.95;88.24;99270.00;4995007;28;20210;-88
2022/01/08 00:55:06;;;;;;;3.93;1.77;;;;;;;7.96;88.04;99263.88;4994395;28;20194;-88
2022/01/08 00:57:34;;;;;;;4.80;2.30;;;;;;;7.95;88.44;99257.78;4995039;28;20176;-90
2022/01/08 01:00:00;;;;;;;6.07;1.87;;;;;;;7.70;89.49;99257.06;4995600;28;20187;-88
2022/01/08 01:02:25;;;;;;;4.77;2.10;;;;;;;7.70;89.28;99257.06;4994888;28;20282;-87
2022/01/08 01:04:51;;;;;;;2.87;1.90;;;;;;;7.76;89.28;99255.97;4994837;28;20605;-88
2022/01/08 01:07:17;;;;;;;4.43;2.67;;;;;;;7.81;88.88;99257.47;4993885;28;20623;-88
2022/01/08 01:09:42;;;;;;;4.40;2.07;;;;;;;7.71;88.64;99255.28;4993807;28;20529;-88
2022/01/08 01:12:08;;;;;;;3.37;2.47;;;;;;;7.77;88.79;99255.06;4994129;28;20168;-88
2022/01/08 01:14:33;;;;;;;5.50;2.33;;;;;;;7.76;89.24;99242.91;4994063;28;20253;-87
2022/01/08 01:16:59;;;;;;;5.23;2.20;;;;;;;7.75;89.31;99238.63;4994919;28;20171;-88
2022/01/08 01:19:25;;;;;;;6.27;2.93;;;;;;;8.00;88.27;99224.53;4994633;28;20266;-88
2022/01/08 01:21:53;;;;;;;3.27;1.50;;;;;;;7.73;88.11;99220.41;4994486;28;20200;-87
2022/01/08 01:24:22;;;;;;;2.37;2.10;;;;;;;7.81;88.36;99214.88;4994523;28;20214;-88
2022/01/08 01:27:15;;;;;;;4.30;2.10;;;;;;;7.76;88.83;99212.47;4994421;28;20238;-88
2022/01/08 01:48:30;;;;;;;4.70;2.20;;;;;;;7.98;88.35;99207.22;4993324;28;20275;-88
2022/01/08 01:50:55;;;;;;;2.47;1.93;;;;;;;8.12;87.56;99197.09;4994101;28;20204;-88
2022/01/08 01:53:21;;;;;;;4.03;2.00;;;;;;;8.06;87.73;99197.31;4993951;28;20215;-88
2022/01/08 01:55:50;;;;;;;3.00;2.00;;;;;;;8.14;87.41;99187.41;4993987;28;20183;-88
2022/01/08 01:58:17;;;;;;;3.90;2.27;;;;;;;8.03;87.61;99189.63;4993938;28;20242;-88
2022/01/08 02:00:44;;;;;;;2.87;1.40;;;;;;;8.02;87.92;99180.94;4993281;28;20187;-88
2022/01/08 02:03:10;;;;;;;2.57;1.23;;;;;;;8.05;87.62;99188.66;4993808;28;20600;-88
2022/01/08 02:05:35;;;;;;;5.47;2.83;;;;;;;8.03;87.54;99182.66;4993851;28;20180;-88
2022/01/08 02:08:01;;;;;;;4.03;1.50;;;;;;;8.17;86.75;99178.59;4994119;28;20176;-88
2022/01/08 02:10:26;;;;;;;3.67;1.50;;;;;;;8.14;86.83;99178.72;4994654;28;20186;-88
2022/01/08 02:12:53;;;;;;;3.17;1.20;;;;;;;7.88;88.34;99167.63;4993809;28;20180;-88
2022/01/08 02:15:18;;;;;;;2.07;1.17;;;;;;;7.70;88.97;99170.13;4993075;28;20587;-89
2022/01/08 02:17:44;;;;;;;3.90;1.30;;;;;;;7.73;89.58;99170.84;4993740;28;20194;-88
2022/01/08 02:20:11;;;;;;;2.63;1.57;;;;;;;7.85;89.54;99159.91;4992723;28;20192;-89
2022/01/08 02:22:37;;;;;;;4.10;1.20;;;;;;;7.73;89.44;99163.00;4993610;28;20227;-88
2022/01/08 02:25:03;;;;;;;3.03;1.47;;;;;;;7.71;90.54;99163.97;4993422;28;20180;-88
2022/01/08 02:27:28;;;;;;;1.33;0.80;;;;;;;7.84;89.07;99150.38;4993659;28;20191;-88
2022/01/08 02:29:54;;;;;;;2.00;0.97;;;;;;;7.91;88.93;99156.22;4993904;28;20195;-88
2022/01/08 02:32:27;;;;;;;3.30;1.83;;;;;;;7.79;89.45;99165.38;4993595;28;20249;-90
2022/01/08 02:34:53;;;;;;;2.73;1.23;;;;;;;7.86;89.52;99151.16;4993940;28;20175;-88
2022/01/08 02:37:25;;;;;;;2.47;1.43;;;;;;;7.82;89.25;99151.34;4993641;28;20245;-88
2022/01/08 02:39:50;;;;;;;2.13;1.07;;;;;;;7.88;89.03;99146.75;4992652;28;20171;-88
2022/01/08 02:42:19;;;;;;;2.27;1.30;;;;;;;7.90;89.19;99149.28;4993454;28;20211;-88
2022/01/08 02:44:46;;;;;;;3.17;1.63;;;;;;;7.95;88.43;99145.56;4992534;28;20629;-89
2022/01/08 02:47:16;;;;;;;1.53;1.00;;;;;;;7.90;89.46;99149.28;4993443;28;20238;-88
2022/01/08 02:49:44;;;;;;;2.60;1.63;;;;;;;7.96;88.75;99155.09;4993769;28;20176;-89
2022/01/08 02:52:10;;;;;;;1.70;0.83;;;;;;;8.12;88.50;99154.47;4993586;28;20219;-89
2022/01/08 02:54:36;;;;;;;1.50;0.83;;;;;;;8.08;88.10;99156.34;4993392;28;20652;-90
2022/01/08 02:57:02;;;;;;;2.00;1.33;;;;;;;7.94;88.62;99146.47;4993395;28;20254;-89
2022/01/08 02:59:29;;;;;;;2.50;1.30;;;;;;;7.96;88.72;99152.50;4993350;28;20609;-87
2022/01/08 03:01:54;;;;;;;3.97;1.67;;;;;;;8.05;88.20;99159.94;4993217;28;20203;-89
2022/01/08 03:04:21;;;;;;;2.03;0.77;;;;;;;8.13;88.27;99153.53;4993543;28;20540;-88
2022/01/08 03:06:46;;;;;;;2.63;1.27;;;;;;;8.06;88.24;99152.94;4993563;28;20183;-89
2022/01/08 03:09:12;;;;;;;4.53;1.50;;;;;;;8.18;87.80;99154.19;4993308;28;20180;-88
2022/01/08 03:11:42;;;;;;;1.23;0.60;;;;;;;8.25;86.70;99150.41;4993271;28;20626;-88
2022/01/08 03:14:08;;;;;;;1.83;0.90;;;;;;;7.88;88.36;99151.97;4993275;28;20184;-88
2022/01/08 03:16:34;;;;;;;1.97;0.80;;;;;;;8.03;88.78;99155.69;4993234;28;20191;-88
2022/01/08 03:19:08;;;;;;;1.83;1.03;;;;;;;8.07;88.38;99148.59;4992227;28;20187;-88
2022/01/08 03:21:35;;;;;;;4.00;1.60;;;;;;;8.07;88.56;99142.44;4993708;28;20207;-88
2022/01/08 03:24:03;;;;;;;1.70;0.53;;;;;;;8.01;87.60;99147.94;4993154;28;20183;-89
2022/01/08 03:26:29;;;;;;;2.07;0.77;;;;;;;8.01;88.10;99149.69;4993141;28;20183;-88
2022/01/08 03:28:56;;;;;;;1.20;0.67;;;;;;;7.99;88.60;99143.69;4993057;28;20187;-88
2022/01/08 03:31:23;;;;;;;1.47;0.70;;;;;;;7.95;88.59;99132.53;4993361;28;20242;-88
2022/01/08 03:33:50;;;;;;;1.70;0.77;;;;;;;7.96;88.73;99139.44;4993369;28;20591;-88
2022/01/08 03:36:17;;;;;;;0.53;0.50;;;;;;;7.98;88.39;99137.63;4994607;28;20259;-88
2022/01/08 03:38:43;;;;;;;2.30;0.73;;;;;;;8.05;87.87;99141.66;4996785;28;20553;-88
2022/01/08 03:41:09;;;;;;;3.13;1.50;;;;;;;8.12;87.85;99137.03;4996426;28;20175;-89
2022/01/08 03:43:34;;;;;;;5.80;1.17;;;;;;;8.05;87.97;99131.22;4996318;28;20199;-88
2022/01/08 03:46:02;;;;;;;2.83;0.93;;;;;;;8.07;88.10;99133.75;4996338;28;20184;-88
2022/01/08 03:48:32;;;;;;;3.57;0.77;;;;;;;8.03;88.03;99138.28;4996378;28;20356;-90
2022/01/08 03:50:58;;;;;;;1.97;0.93;;;;;;;7.98;88.06;99134.16;4995332;28;20648;-88
2022/01/08 03:53:25;;;;;;;1.27;0.67;;;;;;;7.91;89.19;99140.56;4995262;28;20199;-88
2022/01/08 03:55:51;;;;;;;1.50;0.93;;;;;;;7.87;88.74;99145.03;4996241;28;20310;-88
2022/01/08 03:58:18;;;;;;;2.73;0.90;;;;;;;7.77;88.66;99138.50;4996156;28;20175;-89
2022/01/08 04:00:44;;;;;;;2.17;0.93;;;;;;;7.63;90.38;99143.44;4996003;28;20191;-89
2022/01/08 04:03:10;;;;;;;2.03;1.10;;;;;;;7.73;90.06;99136.91;4995052;28;20227;-88
2022/01/08 04:05:35;;;;;;;1.87;1.00;;;;;;;7.91;89.47;99135.34;4995084;28;20218;-88
2022/01/08 04:08:01;;;;;;;2.00;1.10;;;;;;;7.97;87.96;99130.69;4995043;28;20214;-88
2022/01/08 04:10:26;;;;;;;2.60;1.00;;;;;;;7.71;89.22;99133.53;4995040;28;20266;-89
2022/01/08 04:12:56;;;;;;;1.30;0.80;;;;;;;7.77;89.07;99137.66;4995166;28;20191;-88
2022/01/08 04:17:49;;;;;;;2.77;1.30;;;;;;;8.04;87.85;99132.13;4996383;28;20246;-88
2022/01/08 04:20:16;;;;;;;4.20;1.33;;;;;;;8.22;86.92;99134.88;4995754;28;20187;-88
2022/01/08 04:22:43;;;;;;;2.63;1.07;;;;;;;8.07;86.72;99137.22;4994891;28;20631;-89
2022/01/08 04:25:10;;;;;;;1.83;1.27;;;;;;;8.10;87.60;99136.22;4995644;28;20187;-88
2022/01/08 04:27:35;;;;;;;3.23;1.50;;;;;;;8.04;87.50;99131.28;4995660;28;20280;-88
2022/01/08 04:30:01;;;;;;;2.60;1.33;;;;;;;8.13;87.93;99130.88;4994570;28;20180;-89
2022/01/08 04:32:27;;;;;;;2.77;1.03;;;;;;;8.12;87.69;99138.78;4995501;28;20175;-89
2022/01/08 04:34:52;;;;;;;2.27;1.50;;;;;;;8.02;87.49;99141.78;4995457;28;20190;-88
2022/01/08 04:37:18;;;;;;;2.60;1.20;;;;;;;8.09;87.96;99134.56;4995395;28;20180;-88
2022/01/08 04:39:44;;;;;;;4.97;1.57;;;;;;;8.28;87.10;99129.44;4995397;28;20212;-88
2022/01/08 04:42:09;;;;;;;2.27;1.20;;;;;;;8.33;86.50;99135.31;4995290;28;20691;-88
2022/01/08 04:44:35;;;;;;;2.70;0.97;;;;;;;8.29;87.02;99136.31;4995587;28;20180;-88
2022/01/08 04:47:00;;;;;;;3.93;1.73;;;;;;;8.16;86.91;99135.13;4994125;28;20514;-88
2022/01/08 04:49:26;;;;;;;0.90;0.57;;;;;;;8.17;86.88;99129.84;4994803;28;20648;-88
2022/01/08 04:51:53;;;;;;;2.53;1.17;;;;;;;8.29;87.12;99131.09;4995021;28;20540;-88
2022/01/08 04:54:19;;;;;;;2.73;1.50;;;;;;;8.43;86.21;99128.75;4995743;28;20228;-88
2022/01/08 04:56:45;;;;;;;2.33;0.90;;;;;;;8.51;85.72;99137.09;4995093;28;20200;-88
2022/01/08 04:59:10;;;;;;;2.37;0.93;;;;;;;8.48;85.38;99137.22;4994018;28;20215;-87
2022/01/08 05:01:36;;;;;;;1.77;1.23;;;;;;;8.55;85.17;99134.28;4994954;28;20172;-88
2022/01/08 05:04:02;;;;;;;2.20;1.23;;;;;;;8.35;85.60;99131.69;4995146;28;20198;-89
2022/01/08 05:06:28;;;;;;;4.10;1.87;;;;;;;8.49;85.04;99129.31;4994230;28;20522;-88
2022/01/08 05:08:53;;;;;;;4.07;1.67;;;;;;;8.46;84.35;99128.63;4994867;28;20189;-88
2022/01/08 05:11:19;;;;;;;4.37;1.33;;;;;;;8.35;85.45;99125.63;4994735;28;20211;-89
2022/01/08 05:13:45;;;;;;;2.67;1.17;;;;;;;8.38;85.30;99125.50;4994682;28;20168;-89
2022/01/08 05:16:10;;;;;;;0.80;0.80;;;;;;;8.03;87.29;99129.59;4995271;28;20175;-89
2022/01/08 05:18:36;;;;;;;1.97;1.10;;;;;;;8.01;87.70;99127.06;4994900;28;20237;-89
2022/01/08 05:21:19;;;;;;;1.73;0.73;;;;;;;8.15;87.03;99129.06;4994863;28;20203;-88
2022/01/08 05:23:48;;;;;;;1.67;1.23;;;;;;;7.98;87.73;99121.97;4995008;28;20199;-89
2022/01/08 05:26:13;;;;;;;2.20;1.17;;;;;;;7.97;88.75;99122.84;4994467;28;20186;-88
2022/01/08 05:28:39;;;;;;;3.10;1.23;;;;;;;7.93;88.49;99115.22;4994494;28;20184;-88
2022/01/08 05:31:04;;;;;;;2.00;0.83;;;;;;;8.10;88.08;99117.97;4993740;28;20549;-88
2022/01/08 05:33:30;;;;;;;0.90;0.63;;;;;;;8.00;88.24;99114.91;4994359;28;20176;-88
2022/01/08 05:35:57;;;;;;;2.23;0.93;;;;;;;8.00;88.37;99117.50;4994638;28;20179;-89
2022/01/08 05:38:22;;;;;;;1.43;0.87;;;;;;;8.03;87.71;99112.16;4994563;28;20258;-89
2022/01/08 05:40:48;;;;;;;1.53;0.73;;;;;;;8.15;87.89;99113.38;4994262;28;20688;-89
2022/01/08 05:43:16;;;;;;;3.47;1.13;;;;;;;8.07;88.23;99104.22;4994161;28;20199;-89
2022/01/08 05:45:42;;;;;;;2.50;1.40;;;;;;;8.03;88.88;99108.69;4993217;28;20213;-88
2022/01/08 05:48:08;;;;;;;3.03;0.77;;;;;;;8.04;88.81;99106.00;4994179;28;20617;-88
2022/01/08 05:50:34;;;;;;;1.80;1.27;;;;;;;8.10;88.89;99104.09;4994393;28;20175;-88
2022/01/08 05:52:59;;;;;;;3.60;1.63;;;;;;;8.25;87.69;99108.63;4993948;28;20546;-89
2022/01/08 05:55:25;;;;;;;6.37;1.63;;;;;;;8.20;87.72;99102.78;4994019;28;20318;-88
2022/01/08 05:57:50;;;;;;;3.27;1.30;;;;;;;8.21;87.74;99112.28;4994079;28;20194;-88
2022/01/08 06:00:16;;;;;;;1.97;0.70;;;;;;;8.34;87.38;99105.63;4994189;28;20179;-88
2022/01/08 06:02:42;;;;;;;2.10;1.10;;;;;;;8.39;86.99;99104.53;4994152;28;20211;-88
2022/01/08 06:05:08;;;;;;;3.40;1.60;;;;;;;8.22;87.78;99107.00;4993911;28;20179;-89
2022/01/08 06:07:34;;;;;;;3.50;1.43;;;;;;;8.30;87.69;99102.34;4993888;28;20175;-88
2022/01/08 06:10:00;;;;;;;2.10;1.30;;;;;;;8.26;87.46;99110.31;4993832;28;20176;-88
2022/01/08 06:12:25;;;;;;;1.97;1.10;;;;;;;8.32;87.32;99113.56;4993819;28;20317;-89
2022/01/08 06:14:51;;;;;;;1.33;0.63;;;;;;;8.42;86.93;99111.38;4992808;28;20624;-88
2022/01/08 06:17:16;;;;;;;2.23;1.10;;;;;;;8.54;86.49;99110.84;4994010;28;20186;-88
2022/01/08 06:19:42;;;;;;;5.03;1.87;;;;;;;8.64;85.92;99105.16;4992754;28;20606;-88
2022/01/08 06:22:07;;;;;;;3.03;1.33;;;;;;;8.51;86.53;99108.38;4992937;28;20205;-88
2022/01/08 06:24:33;;;;;;;0.53;0.40;;;;;;;8.48;86.50;99111.97;4993675;28;20263;-88
2022/01/08 06:26:58;;;;;;;2.43;1.13;;;;;;;8.43;87.10;99108.72;4993929;28;20626;-88
2022/01/08 06:29:24;;;;;;;1.27;1.03;;;;;;;8.39;87.49;99117.59;4993921;28;20250;-88
2022/01/08 06:31:50;;;;;;;1.37;0.77;;;;;;;8.37;87.54;99108.97;4993605;28;20238;-88
2022/01/08 06:34:15;;;;;;;1.80;1.07;;;;;;;8.51;87.23;99100.53;4993546;28;20176;-88
2022/01/08 06:36:41;;;;;;;2.10;0.87;;;;;;;8.53;87.17;99109.13;4992598;28;20191;-88
2022/01/08 06:39:06;;;;;;;2.63;0.90;;;;;;;8.56;87.05;99111.63;4992929;28;20176;-88
2022/01/08 06:41:32;;;;;;;2.30;1.30;;;;;;;8.67;86.93;99105.91;4992852;28;20190;-88
2022/01/08 06:43:58;;;;;;;4.70;1.40;;;;;;;8.79;86.33;99106.19;4993453;28;20203;-88
2022/01/08 06:46:24;;;;;;;4.77;1.83;;;;;;;8.82;86.43;99106.06;4992808;28;20607;-88
2022/01/08 06:48:50;;;;;;;1.77;1.27;;;;;;;8.95;85.88;99107.19;4993490;28;20609;-88
2022/01/08 06:51:15;;;;;;;5.10;1.23;;;;;;;8.98;85.87;99100.97;4993724;28;20184;-88
2022/01/08 06:53:41;;;;;;;3.03;1.63;;;;;;;9.05;84.97;99112.81;4993380;28;20211;-88
2022/01/08 06:56:07;;;;;;;2.90;1.40;;;;;;;9.03;85.08;99115.53;4993428;28;20191;-87
2022/01/08 06:58:33;;;;;;;2.77;1.60;;;;;;;9.06;85.03;99110.16;4993230;28;20282;-88
2022/01/08 07:00:59;;;;;;;3.53;1.53;;;;;;;9.07;85.15;99109.22;4993615;28;20680;-89
2022/01/08 07:03:24;;;;;;;4.07;1.70;;;;;;;8.90;86.16;99114.41;4993241;28;20207;-89
2022/01/08 07:05:50;;;;;;;4.33;2.07;;;;;;;8.86;86.80;99112.81;4993345;28;20216;-89
2022/01/08 07:08:15;;;;;;;2.87;1.30;;;;;;;9.04;85.64;99117.19;4992313;28;20601;-89
2022/01/08 07:10:41;;;;;;;4.27;2.00;;;;;;;9.20;85.47;99110.34;4994395;28;20207;-88
2022/01/08 07:13:06;;;;;;;3.00;1.90;;;;;;;9.23;85.34;99106.72;4995994;28;20561;-88
2022/01/08 07:15:32;;;;;;;5.07;1.83;;;;;;;9.16;85.14;99111.41;4996919;28;20186;-88
2022/01/08 07:17:58;;;;;;;2.53;1.23;;;;;;;9.11;85.80;99113.41;4996583;28;20609;-88
2022/01/08 07:20:24;;;;;;;3.80;1.70;;;;;;;9.16;85.56;99111.41;4997187;28;20176;-88
2022/01/08 07:22:49;;;;;;;4.40;1.73;;;;;;;9.20;85.32;99114.72;4996746;28;20196;-88
2022/01/08 07:25:16;;;;;;;3.83;1.63;;;;;;;9.23;85.17;99107.59;4997301;28;20536;-89
2022/01/08 07:27:41;;;;;;;7.27;2.30;;;;;;;9.07;85.50;99114.44;4997303;28;20167;-88
2022/01/08 07:30:08;;;;;;;6.00;2.33;;;;;;;9.09;85.81;99098.72;4996628;28;20184;-88
2022/01/08 07:32:41;;;;;;;3.20;2.17;;;;;;;9.19;84.98;99099.97;4996716;28;20259;-89
2022/01/08 07:35:08;;;;;;;3.27;1.43;;;;;;;8.98;85.96;99103.59;4996616;28;20264;-88
2022/01/08 07:37:35;;;;;;;3.03;1.10;;;;;;;9.06;85.65;99094.47;4996844;28;20242;-88
2022/01/08 07:40:01;;;;;;;3.33;1.50;;;;;;;9.11;85.84;99094.25;4996662;28;20191;-88
2022/01/08 07:42:27;;;;;;;4.90;2.00;;;;;;;9.30;85.53;99096.84;4996391;28;20724;-89
2022/01/08 07:44:52;;;;;;;5.37;1.40;;;;;;;9.35;85.22;99079.16;4996442;28;20176;-89
2022/01/08 07:47:18;;;;;;;6.43;2.80;;;;;;;9.36;85.21;99093.91;4995444;28;20181;-89
2022/01/08 07:49:43;;;;;;;4.43;2.00;;;;;;;9.46;85.01;99096.00;4995370;28;20184;-89
2022/01/08 07:52:09;;;;;;;3.27;1.60;;;;;;;9.55;84.28;99089.47;4996130;28;20686;-89
2022/01/08 07:54:35;;;;;;;7.33;3.23;;;;;;;9.64;84.00;99087.25;4995268;28;20184;-88
2022/01/08 07:57:00;;;;;;;7.50;2.90;;;;;;;9.72;83.83;99081.66;4996716;28;20188;-89
2022/01/08 07:59:26;;;;;;;3.53;2.03;;;;;;;9.80;83.36;99082.94;4996650;28;20622;-89
2022/01/08 08:01:51;;;;;;;5.80;2.13;;;;;;;9.80;83.50;99092.59;4995105;28;20276;-89
2022/01/08 08:04:17;;;;;;;9.10;3.23;;;;;;;9.83;83.72;99092.41;4995059;28;20176;-89
2022/01/08 08:06:47;;;;;;;3.63;2.23;;;;;;;9.73;84.06;99086.81;4996309;28;20179;-89
2022/01/08 08:09:15;;;;;;;6.97;2.50;;;;;;;9.81;83.98;99092.50;4995051;28;20210;-89
2022/01/08 08:11:42;;;;;;;4.27;2.37;;;;;;;9.84;83.29;99094.13;4994990;28;20275;-89
2022/01/08 08:14:08;;;;;;;9.57;2.87;;;;;;;9.84;82.73;99096.75;4994930;28;20182;-89
2022/01/08 08:16:33;;;;;;;5.90;2.00;;;;;;;9.86;83.02;99097.50;4994862;28;20187;-89
2022/01/08 08:18:59;;;;;;;4.20;1.47;;;;;;;9.83;82.67;99093.28;4995858;28;20189;-89
2022/01/08 08:21:25;;;;;;;5.47;1.97;;;;;;;9.90;82.65;99086.78;4995540;28;20612;-89
2022/01/08 08:23:52;;;;;;;2.33;1.27;;;;;;;9.93;82.71;99087.59;4994693;28;20265;-89
2022/01/08 08:26:18;;;;;;;2.60;1.50;;;;;;;9.97;82.67;99084.72;4994667;28;20551;-89
2022/01/08 08:28:43;;;;;;;6.80;1.90;;;;;;;9.96;82.08;99084.81;4995840;28;20198;-89
2022/01/08 08:31:11;;;;;;;4.87;2.00;;;;;;;10.03;82.15;99088.81;4995588;28;20251;-88
2022/01/08 08:33:36;;;;;;;7.20;2.43;;;;;;;10.03;82.33;99083.56;4995754;28;20175;-89
2022/01/08 08:36:02;;;;;;;5.27;2.17;;;;;;;10.00;82.00;99081.97;4994486;28;20200;-89
2022/01/08 08:38:27;;;;;;;5.80;2.50;;;;;;;9.98;81.72;99069.88;4994508;28;20316;-89
2022/01/08 08:40:53;;;;;;;6.23;2.73;;;;;;;10.01;82.22;99075.78;4994445;28;20184;-89
2022/01/08 08:43:21;;;;;;;7.70;3.13;;;;;;;9.99;82.14;99072.41;4994306;28;20267;-89
2022/01/08 08:45:49;;;;;;;20.00;7.80;;;;;;;9.99;82.56;99077.63;4995283;28;20182;-89
2022/01/08 08:48:16;;;;;;;8.27;3.33;;;;;;;10.02;82.57;99064.38;4995547;28;20193;-89
2022/01/08 08:50:45;;;;;;;42.73;16.17;;;;;;;10.06;82.79;99058.09;4994217;28;20265;-89
2022/01/08 08:53:11;;;;;;;17.70;7.23;;;;;;;9.99;83.80;99055.84;4995173;28;20217;-89
2022/01/08 08:55:39;;;;;;;14.03;6.53;;;;;;;10.09;83.68;99052.66;4994110;28;20621;-89
2022/01/08 08:58:04;;;;;;;6.53;2.57;;;;;;;10.16;83.62;99054.09;4995594;28;20219;-89
2022/01/08 09:00:32;;;;;;;10.53;4.37;;;;;;;10.20;83.82;99045.13;4995252;28;20182;-89
2022/01/08 09:02:58;;;;;;;8.60;4.53;;;;;;;10.20;83.19;99050.38;4994897;28;20199;-89
2022/01/08 09:05:23;;;;;;;8.90;3.70;;;;;;;10.17;83.53;99039.19;4993966;28;20191;-89
2022/01/08 09:07:51;;;;;;;8.93;2.67;;;;;;;10.22;83.22;99032.78;4994861;28;20271;-89
2022/01/08 09:10:25;;;;;;;5.13;2.40;;;;;;;10.30;83.30;99030.63;4993775;28;20656;-89
2022/01/08 09:12:52;;;;;;;4.67;1.87;;;;;;;10.34;83.03;99026.91;4993853;28;20234;-89
2022/01/08 09:15:22;;;;;;;7.60;2.83;;;;;;;10.33;83.43;99025.22;4993727;28;20648;-89
2022/01/08 09:17:49;;;;;;;5.87;3.07;;;;;;;10.42;83.83;99026.50;4995030;28;20178;-89
2022/01/08 09:20:15;;;;;;;6.10;3.00;;;;;;;10.48;83.13;99003.44;4993971;28;20644;-88
2022/01/08 09:22:40;;;;;;;7.40;3.63;;;;;;;10.42;82.93;99003.78;4994542;28;20234;-89
2022/01/08 09:25:10;;;;;;;5.87;3.27;;;;;;;10.38;83.30;99001.38;4993579;28;20179;-89
2022/01/08 09:27:48;;;;;;;6.80;3.67;;;;;;;10.34;83.71;99016.44;4994802;28;20191;-89
2022/01/08 09:30:16;;;;;;;11.33;5.27;;;;;;;10.43;83.57;98996.75;4994803;28;20226;-89
2022/01/08 09:32:43;;;;;;;9.50;3.90;;;;;;;10.40;83.72;98994.31;4993225;28;20183;-90
2022/01/08 09:35:16;;;;;;;11.97;3.77;;;;;;;10.32;83.94;98983.41;4993817;28;20176;-88
2022/01/08 09:38:03;;;;;;;9.47;3.37;;;;;;;10.34;83.76;98990.25;4993393;28;20198;-87
2022/01/08 09:40:28;;;;;;;10.73;4.60;;;;;;;10.40;83.84;98984.66;4994604;28;20195;-89
2022/01/08 09:43:05;;;;;;;8.87;4.50;;;;;;;10.45;83.86;98971.31;4993193;28;20207;-90
2022/01/08 09:45:34;;;;;;;7.00;2.97;;;;;;;10.45;83.76;98972.16;4994295;28;20254;-90
2022/01/08 09:48:02;;;;;;;6.70;2.47;;;;;;;10.54;84.10;98959.47;4993638;28;20624;-89
2022/01/08 09:50:35;;;;;;;4.93;2.60;;;;;;;10.51;84.03;98959.66;4993214;28;20180;-90
2022/01/08 09:53:08;;;;;;;5.73;2.60;;;;;;;10.63;83.86;98964.22;4994909;28;20194;-89
2022/01/08 09:55:46;;;;;;;;;;;;;;;;;;;;;
2022/01/08 10:01:51;;;;;;;;;;;;;;;;;;;;;
2022/01/08 10:04:34;;;;;;;5.03;1.90;;;;;;;10.48;83.64;98940.53;4994449;28;20189;-90
2022/01/08 10:07:14;;;;;;;2.63;1.37;;;;;;;10.55;83.54;98934.97;4994286;28;20163;-89
2022/01/08 10:10:35;;;;;;;;;;;;;;;;;;;;;
2022/01/08 10:13:21;;;;;;;3.03;1.53;;;;;;;10.42;83.71;98930.41;4994392;28;20156;-90
2022/01/08 10:18:43;;;;;;;4.17;1.93;;;;;;;10.66;84.12;98927.34;4994642;28;20204;-89
2022/01/08 10:21:26;;;;;;;5.20;2.53;;;;;;;10.80;83.54;98922.16;4992889;28;20175;-90
2022/01/08 10:24:17;;;;;;;5.07;2.30;;;;;;;10.89;83.06;98926.91;4994219;28;20218;-89
2022/01/08 10:26:49;;;;;;;6.80;2.13;;;;;;;10.93;82.74;98920.53;4984941;28;20214;-89
2022/01/08 10:29:21;;;;;;;2.90;1.67;;;;;;;10.89;82.27;98913.78;4993750;28;20164;-89
2022/01/08 10:31:51;;;;;;;4.57;2.70;;;;;;;10.93;82.17;98910.03;4992942;28;20191;-89
2022/01/08 10:34:25;;;;;;;4.33;2.50;;;;;;;10.94;82.41;98906.50;4992686;28;20175;-89
2022/01/08 10:37:05;;;;;;;3.77;2.50;;;;;;;10.81;82.06;98901.13;4993877;28;20160;-89
2022/01/08 10:39:32;;;;;;;5.83;3.00;;;;;;;10.61;83.18;98897.94;4992953;28;20193;-89
2022/01/08 10:42:07;;;;;;;4.30;2.50;;;;;;;10.72;82.72;98895.53;4993709;28;20171;-89
2022/01/08 10:44:38;;;;;;;5.13;2.20;;;;;;;10.74;82.74;98897.16;4994417;28;20178;-90
2022/01/08 10:47:12;;;;;;;3.80;1.70;;;;;;;10.71;82.43;98894.72;4997720;28;20188;-89
2022/01/08 10:50:05;;;;;;;3.33;2.07;;;;;;;10.79;82.64;98891.66;4996735;28;20228;-90
2022/01/08 10:53:33;;;;;;;;;;;;;;;;;;;;;
2022/01/08 10:56:19;;;;;;;10.83;4.10;;;;;;;10.83;82.71;98887.91;4997852;28;20164;-89
2022/01/08 10:58:55;;;;;;;11.17;3.63;;;;;;;10.69;82.32;98886.06;4998197;28;20192;-89
2022/01/08 11:01:44;;;;;;;19.43;5.83;;;;;;;10.74;82.82;98881.44;4996605;28;20187;-89
2022/01/08 11:04:48;;;;;;;;;;;;;;;;;;;;;
2022/01/08 11:07:27;;;;;;;23.03;6.40;;;;;;;10.67;82.67;98871.38;4991002;28;20191;-90
2022/01/08 11:10:23;;;;;;;16.87;4.70;;;;;;;10.78;82.42;98875.06;4998034;28;20617;-89
2022/01/08 11:13:06;;;;;;;19.40;6.67;;;;;;;10.79;82.26;98870.69;4996172;28;20271;-89
2022/01/08 11:15:49;;;;;;;9.47;4.23;;;;;;;10.77;82.57;98875.16;4997373;28;20167;-90
2022/01/08 11:18:19;;;;;;;16.43;5.43;;;;;;;10.85;82.16;98867.69;4995647;28;20634;-88
2022/01/08 11:21:16;;;;;;;;;;;;;;;;;;;;;
2022/01/08 11:23:42;;;;;;;10.47;4.97;;;;;;;10.87;82.11;98857.97;4997663;28;20196;-89
2022/01/08 11:26:14;;;;;;;10.93;5.43;;;;;;;10.89;82.12;98851.69;4996386;28;20190;-89
2022/01/08 11:28:46;;;;;;;8.13;4.10;;;;;;;10.71;82.09;98857.16;4996124;28;20183;-89
2022/01/08 11:31:15;;;;;;;17.20;4.63;;;;;;;10.68;82.63;98844.22;4995836;28;20175;-90
2022/01/08 11:33:48;;;;;;;18.57;5.57;;;;;;;10.85;82.15;98849.31;4995988;28;20210;-89
2022/01/08 11:36:15;;;;;;;11.07;6.27;;;;;;;10.86;82.10;98843.16;4995694;28;20175;-88
2022/01/08 11:38:43;;;;;;;15.27;5.23;;;;;;;10.89;82.27;98840.38;4995664;28;20234;-89
2022/01/08 11:41:09;;;;;;;9.33;4.17;;;;;;;10.91;82.04;98838.50;4996830;28;20246;-89
2022/01/08 11:43:40;;;;;;;8.33;3.97;;;;;;;10.98;81.84;98834.56;4996641;28;20203;-89
2022/01/08 11:46:07;;;;;;;13.87;4.90;;;;;;;10.98;81.80;98838.03;4995475;28;20191;-89
2022/01/08 11:48:39;;;;;;;27.07;7.23;;;;;;;10.87;81.89;98831.75;4995481;28;20207;-89
2022/01/08 11:51:06;;;;;;;20.60;6.00;;;;;;;10.83;82.13;98830.22;4995392;28;20270;-89
2022/01/08 11:53:48;;;;;;;20.60;7.47;;;;;;;10.88;82.44;98836.03;4996427;28;20195;-89
2022/01/08 11:56:40;;;;;;;15.60;6.80;;;;;;;10.89;81.90;98845.63;4996021;28;20156;-89
2022/01/08 11:59:12;;;;;;;17.63;6.50;;;;;;;10.95;81.85;98837.41;4992121;28;20209;-89
2022/01/08 12:01:46;;;;;;;19.10;7.77;;;;;;;10.96;81.78;98834.66;4996938;28;20190;-89
2022/01/08 12:04:26;;;;;;;35.57;10.13;;;;;;;10.94;82.03;98830.44;4996727;28;20278;-89
2022/01/08 12:06:52;;;;;;;26.40;9.13;;;;;;;10.95;82.07;98824.28;4995091;28;20530;-88
2022/01/08 12:09:25;;;;;;;20.93;7.57;;;;;;;10.98;82.05;98824.06;4996235;28;20271;-89
2022/01/08 12:11:54;;;;;;;25.00;7.43;;;;;;;11.05;81.48;98821.03;4996332;28;20156;-89
2022/01/08 12:14:19;;;;;;;32.87;9.97;;;;;;;11.12;81.40;98816.25;4996203;28;20168;-89
2022/01/08 12:16:53;;;;;;;27.00;8.83;;;;;;;11.19;81.10;98814.13;4996661;28;20179;-88
2022/01/08 12:19:37;;;;;;;21.97;7.20;;;;;;;11.18;80.63;98810.63;4995832;28;20164;-89
2022/01/08 12:22:21;;;;;;;34.13;8.03;;;;;;;11.16;80.74;98806.41;4995097;28;20178;-89